sensor_id;sensor_type;location;lat;lon;timestamp;pressure;altitude;pressure_sealevel;temperature;humidity
38630;BME280;24384;51.988;4.644;2023-07-22T00:01:30;101451.19;;;15.21;100.00
38630;BME280;24384;51.988;4.644;2023-07-22T00:03:56;101453.91;;;15.19;100.00
38630;BME280;24384;51.988;4.644;2023-07-22T00:06:21;101452.94;;;15.22;100.00
38630;BME280;24384;51.988;4.644;2023-07-22T00:08:46;101445.03;;;15.20;100.00
38630;BME280;24384;51.988;4.644;2023-07-22T00:11:12;101440.56;;;15.21;100.00
38630;BME280;24384;51.988;4.644;2023-07-22T00:13:37;101441.84;;;15.12;100.00
38630;BME280;24384;51.988;4.644;2023-07-22T00:16:02;101440.34;;;15.05;100.00
38630;BME280;24384;51.988;4.644;2023-07-22T00:18:30;101441.41;;;15.01;100.00
38630;BME280;24384;51.988;4.644;2023-07-22T00:20:56;101434.25;;;15.03;100.00
38630;BME280;24384;51.988;4.644;2023-07-22T00:23:21;101424.63;;;15.00;100.00
38630;BME280;24384;51.988;4.644;2023-07-22T00:25:47;101430.97;;;14.96;100.00
38630;BME280;24384;51.988;4.644;2023-07-22T00:28:13;101418.91;;;14.89;100.00
38630;BME280;24384;51.988;4.644;2023-07-22T00:30:38;101423.59;;;14.82;100.00
38630;BME280;24384;51.988;4.644;2023-07-22T00:33:03;101422.13;;;14.75;100.00
38630;BME280;24384;51.988;4.644;2023-07-22T00:35:29;101421.25;;;14.75;100.00
38630;BME280;24384;51.988;4.644;2023-07-22T00:37:55;101421.50;;;14.68;100.00
38630;BME280;24384;51.988;4.644;2023-07-22T00:40:21;101418.25;;;14.62;100.00
38630;BME280;24384;51.988;4.644;2023-07-22T00:42:47;101424.34;;;14.64;100.00
38630;BME280;24384;51.988;4.644;2023-07-22T00:45:13;101429.16;;;14.76;100.00
38630;BME280;24384;51.988;4.644;2023-07-22T00:47:38;101425.72;;;14.74;100.00
38630;BME280;24384;51.988;4.644;2023-07-22T00:50:06;101420.06;;;14.82;100.00
38630;BME280;24384;51.988;4.644;2023-07-22T00:52:33;101422.47;;;14.88;100.00
38630;BME280;24384;51.988;4.644;2023-07-22T00:54:59;101412.31;;;14.98;100.00
38630;BME280;24384;51.988;4.644;2023-07-22T00:57:25;101420.34;;;14.96;100.00
38630;BME280;24384;51.988;4.644;2023-07-22T00:59:50;101405.63;;;15.10;100.00
38630;BME280;24384;51.988;4.644;2023-07-22T01:02:16;101408.03;;;14.95;100.00
38630;BME280;24384;51.988;4.644;2023-07-22T01:04:41;101406.09;;;14.99;100.00
38630;BME280;24384;51.988;4.644;2023-07-22T01:07:07;101408.03;;;14.95;100.00
38630;BME280;24384;51.988;4.644;2023-07-22T01:09:36;101403.09;;;14.86;100.00
38630;BME280;24384;51.988;4.644;2023-07-22T01:12:02;101404.09;;;14.83;100.00
38630;BME280;24384;51.988;4.644;2023-07-22T01:14:28;101401.75;;;14.76;100.00
38630;BME280;24384;51.988;4.644;2023-07-22T01:16:53;101399.09;;;14.76;100.00
38630;BME280;24384;51.988;4.644;2023-07-22T01:19:19;101401.75;;;14.76;100.00
38630;BME280;24384;51.988;4.644;2023-07-22T01:21:45;101400.69;;;14.80;100.00
38630;BME280;24384;51.988;4.644;2023-07-22T01:24:11;101395.78;;;15.12;100.00
38630;BME280;24384;51.988;4.644;2023-07-22T01:26:38;101393.94;;;15.14;99.34
38630;BME280;24384;51.988;4.644;2023-07-22T01:29:05;101386.91;;;15.13;99.99
38630;BME280;24384;51.988;4.644;2023-07-22T01:31:33;101382.25;;;15.18;99.09
38630;BME280;24384;51.988;4.644;2023-07-22T01:33:59;101385.91;;;15.15;99.67
38630;BME280;24384;51.988;4.644;2023-07-22T01:36:24;101387.31;;;15.03;99.63
38630;BME280;24384;51.988;4.644;2023-07-22T01:38:50;101375.75;;;15.04;99.41
38630;BME280;24384;51.988;4.644;2023-07-22T01:41:15;101384.66;;;15.03;99.24
38630;BME280;24384;51.988;4.644;2023-07-22T01:43:40;101379.06;;;15.10;98.99
38630;BME280;24384;51.988;4.644;2023-07-22T01:46:06;101382.56;;;15.10;98.79
38630;BME280;24384;51.988;4.644;2023-07-22T01:48:31;101378.28;;;15.08;98.75
38630;BME280;24384;51.988;4.644;2023-07-22T01:50:57;101379.84;;;14.91;99.50
38630;BME280;24384;51.988;4.644;2023-07-22T01:53:22;101382.06;;;14.81;100.00
38630;BME280;24384;51.988;4.644;2023-07-22T01:55:47;101374.22;;;14.78;100.00
38630;BME280;24384;51.988;4.644;2023-07-22T01:58:13;101378.63;;;14.78;100.00
38630;BME280;24384;51.988;4.644;2023-07-22T02:00:38;101375.06;;;14.79;100.00
38630;BME280;24384;51.988;4.644;2023-07-22T02:03:03;101371.63;;;14.77;100.00
38630;BME280;24384;51.988;4.644;2023-07-22T02:05:29;101374.03;;;14.83;100.00
38630;BME280;24384;51.988;4.644;2023-07-22T02:07:55;101370.66;;;14.78;100.00
38630;BME280;24384;51.988;4.644;2023-07-22T02:10:21;101372.22;;;14.83;99.95
38630;BME280;24384;51.988;4.644;2023-07-22T02:12:46;101375.91;;;14.79;99.81
38630;BME280;24384;51.988;4.644;2023-07-22T02:15:11;101372.94;;;14.66;100.00
38630;BME280;24384;51.988;4.644;2023-07-22T02:17:37;101372.88;;;14.68;100.00
38630;BME280;24384;51.988;4.644;2023-07-22T02:20:02;101365.81;;;14.67;100.00
38630;BME280;24384;51.988;4.644;2023-07-22T02:22:29;101357.91;;;14.65;100.00
38630;BME280;24384;51.988;4.644;2023-07-22T02:24:54;101364.31;;;14.61;100.00
38630;BME280;24384;51.988;4.644;2023-07-22T02:27:20;101360.69;;;14.62;100.00
38630;BME280;24384;51.988;4.644;2023-07-22T02:29:45;101359.09;;;14.58;100.00
38630;BME280;24384;51.988;4.644;2023-07-22T02:32:12;101363.56;;;14.56;100.00
38630;BME280;24384;51.988;4.644;2023-07-22T02:34:37;101358.66;;;14.47;100.00
38630;BME280;24384;51.988;4.644;2023-07-22T02:37:03;101358.53;;;14.50;100.00
38630;BME280;24384;51.988;4.644;2023-07-22T02:39:29;101353.22;;;14.50;100.00
38630;BME280;24384;51.988;4.644;2023-07-22T02:41:54;101355.38;;;14.40;100.00
38630;BME280;24384;51.988;4.644;2023-07-22T02:44:19;101354.34;;;14.44;100.00
38630;BME280;24384;51.988;4.644;2023-07-22T02:46:44;101349.22;;;14.40;100.00
38630;BME280;24384;51.988;4.644;2023-07-22T02:49:10;101346.81;;;14.33;100.00
38630;BME280;24384;51.988;4.644;2023-07-22T02:51:35;101352.19;;;14.32;100.00
38630;BME280;24384;51.988;4.644;2023-07-22T02:54:00;101348.84;;;14.27;100.00
38630;BME280;24384;51.988;4.644;2023-07-22T02:56:26;101343.59;;;14.25;100.00
38630;BME280;24384;51.988;4.644;2023-07-22T02:58:51;101345.47;;;14.23;100.00
38630;BME280;24384;51.988;4.644;2023-07-22T03:01:16;101343.59;;;14.25;100.00
38630;BME280;24384;51.988;4.644;2023-07-22T03:03:42;101349.59;;;14.30;100.00
38630;BME280;24384;51.988;4.644;2023-07-22T03:06:08;101345.47;;;14.23;100.00
38630;BME280;24384;51.988;4.644;2023-07-22T03:08:34;101344.38;;;14.29;100.00
38630;BME280;24384;51.988;4.644;2023-07-22T03:11:00;101352.25;;;14.30;100.00
38630;BME280;24384;51.988;4.644;2023-07-22T03:13:25;101351.44;;;14.28;100.00
38630;BME280;24384;51.988;4.644;2023-07-22T03:15:54;101345.59;;;14.20;100.00
38630;BME280;24384;51.988;4.644;2023-07-22T03:18:20;101349.09;;;14.21;100.00
38630;BME280;24384;51.988;4.644;2023-07-22T03:20:45;101354.59;;;14.16;100.00
38630;BME280;24384;51.988;4.644;2023-07-22T03:23:11;101353.47;;;14.22;100.00
38630;BME280;24384;51.988;4.644;2023-07-22T03:25:36;101362.09;;;14.27;100.00
38630;BME280;24384;51.988;4.644;2023-07-22T03:28:05;101359.63;;;14.22;100.00
38630;BME280;24384;51.988;4.644;2023-07-22T03:30:31;101354.69;;;14.13;100.00
38630;BME280;24384;51.988;4.644;2023-07-22T03:32:57;101357.28;;;14.14;100.00
38630;BME280;24384;51.988;4.644;2023-07-22T03:35:22;101360.38;;;14.04;100.00
38630;BME280;24384;51.988;4.644;2023-07-22T03:37:48;101362.59;;;14.14;100.00
38630;BME280;24384;51.988;4.644;2023-07-22T03:40:13;101367.28;;;14.08;100.00
38630;BME280;24384;51.988;4.644;2023-07-22T03:42:44;101372.59;;;14.08;100.00
38630;BME280;24384;51.988;4.644;2023-07-22T03:45:10;101365.69;;;14.04;100.00
38630;BME280;24384;51.988;4.644;2023-07-22T03:47:35;101362.78;;;14.10;100.00
38630;BME280;24384;51.988;4.644;2023-07-22T03:50:01;101367.06;;;14.14;100.00
38630;BME280;24384;51.988;4.644;2023-07-22T03:52:26;101360.13;;;14.10;100.00
38630;BME280;24384;51.988;4.644;2023-07-22T03:54:51;101363.66;;;14.10;100.00
38630;BME280;24384;51.988;4.644;2023-07-22T03:57:17;101368.03;;;14.11;100.00
38630;BME280;24384;51.988;4.644;2023-07-22T03:59:42;101368.78;;;14.15;100.00
38630;BME280;24384;51.988;4.644;2023-07-22T04:02:07;101364.22;;;14.19;100.00
38630;BME280;24384;51.988;4.644;2023-07-22T04:04:33;101370.59;;;14.37;100.00
38630;BME280;24384;51.988;4.644;2023-07-22T04:06:58;101366.44;;;14.29;100.00
38630;BME280;24384;51.988;4.644;2023-07-22T04:09:23;101360.94;;;14.34;100.00
38630;BME280;24384;51.988;4.644;2023-07-22T04:11:48;101359.22;;;14.33;100.00
38630;BME280;24384;51.988;4.644;2023-07-22T04:14:14;101353.53;;;14.42;100.00
38630;BME280;24384;51.988;4.644;2023-07-22T04:16:39;101348.16;;;14.44;100.00
38630;BME280;24384;51.988;4.644;2023-07-22T04:19:05;101350.69;;;14.47;100.00
38630;BME280;24384;51.988;4.644;2023-07-22T04:21:30;101357.47;;;14.54;100.00
38630;BME280;24384;51.988;4.644;2023-07-22T04:23:55;101351.44;;;14.50;100.00
38630;BME280;24384;51.988;4.644;2023-07-22T04:26:21;101363.03;;;14.48;100.00
38630;BME280;24384;51.988;4.644;2023-07-22T04:28:46;101348.47;;;14.58;100.00
38630;BME280;24384;51.988;4.644;2023-07-22T04:31:11;101355.47;;;14.59;100.00
38630;BME280;24384;51.988;4.644;2023-07-22T04:33:36;101350.56;;;14.50;100.00
38630;BME280;24384;51.988;4.644;2023-07-22T04:36:02;101342.91;;;14.42;100.00
38630;BME280;24384;51.988;4.644;2023-07-22T04:38:27;101353.59;;;14.41;100.00
38630;BME280;24384;51.988;4.644;2023-07-22T04:40:53;101355.06;;;14.48;100.00
38630;BME280;24384;51.988;4.644;2023-07-22T04:43:18;101361.09;;;14.51;100.00
38630;BME280;24384;51.988;4.644;2023-07-22T04:45:44;101354.63;;;14.59;100.00
38630;BME280;24384;51.988;4.644;2023-07-22T04:48:10;101361.25;;;14.71;100.00
38630;BME280;24384;51.988;4.644;2023-07-22T04:50:36;101358.66;;;14.69;100.00
38630;BME280;24384;51.988;4.644;2023-07-22T04:53:01;101361.59;;;14.63;100.00
38630;BME280;24384;51.988;4.644;2023-07-22T04:55:27;101362.50;;;14.62;100.00
38630;BME280;24384;51.988;4.644;2023-07-22T04:57:55;101358.09;;;14.61;100.00
38630;BME280;24384;51.988;4.644;2023-07-22T05:00:20;101360.00;;;14.57;100.00
38630;BME280;24384;51.988;4.644;2023-07-22T05:02:46;101358.72;;;14.67;100.00
38630;BME280;24384;51.988;4.644;2023-07-22T05:05:14;101355.81;;;14.74;100.00
38630;BME280;24384;51.988;4.644;2023-07-22T05:07:40;101355.69;;;14.77;100.00
38630;BME280;24384;51.988;4.644;2023-07-22T05:10:06;101351.63;;;14.89;100.00
38630;BME280;24384;51.988;4.644;2023-07-22T05:12:32;101351.50;;;14.92;100.00
38630;BME280;24384;51.988;4.644;2023-07-22T05:14:57;101354.03;;;14.95;100.00
38630;BME280;24384;51.988;4.644;2023-07-22T05:17:22;101357.44;;;14.98;100.00
38630;BME280;24384;51.988;4.644;2023-07-22T05:19:48;101348.94;;;15.11;100.00
38630;BME280;24384;51.988;4.644;2023-07-22T05:22:14;101341.53;;;15.17;100.00
38630;BME280;24384;51.988;4.644;2023-07-22T05:24:39;101345.19;;;15.15;100.00
38630;BME280;24384;51.988;4.644;2023-07-22T05:27:05;101349.50;;;15.17;100.00
38630;BME280;24384;51.988;4.644;2023-07-22T05:29:30;101339.94;;;15.13;100.00
38630;BME280;24384;51.988;4.644;2023-07-22T05:31:55;101348.25;;;15.26;100.00
38630;BME280;24384;51.988;4.644;2023-07-22T05:34:20;101348.25;;;15.26;100.00
38630;BME280;24384;51.988;4.644;2023-07-22T05:36:46;101339.25;;;15.29;100.00
38630;BME280;24384;51.988;4.644;2023-07-22T05:39:11;101340.00;;;15.32;100.00
38630;BME280;24384;51.988;4.644;2023-07-22T05:41:36;101331.75;;;15.38;100.00
38630;BME280;24384;51.988;4.644;2023-07-22T05:44:01;101335.91;;;15.44;100.00
38630;BME280;24384;51.988;4.644;2023-07-22T05:46:27;101334.63;;;15.53;100.00
38630;BME280;24384;51.988;4.644;2023-07-22T05:48:52;101336.56;;;15.68;100.00
38630;BME280;24384;51.988;4.644;2023-07-22T05:51:18;101339.88;;;15.73;100.00
38630;BME280;24384;51.988;4.644;2023-07-22T05:53:44;101336.09;;;15.79;100.00
38630;BME280;24384;51.988;4.644;2023-07-22T05:56:10;101341.34;;;15.81;100.00
38630;BME280;24384;51.988;4.644;2023-07-22T05:58:35;101341.84;;;15.89;100.00
38630;BME280;24384;51.988;4.644;2023-07-22T06:01:01;101345.22;;;15.92;100.00
38630;BME280;24384;51.988;4.644;2023-07-22T06:03:26;101340.56;;;15.98;100.00
38630;BME280;24384;51.988;4.644;2023-07-22T06:05:51;101341.56;;;15.95;100.00
38630;BME280;24384;51.988;4.644;2023-07-22T06:08:17;101341.13;;;16.04;100.00
38630;BME280;24384;51.988;4.644;2023-07-22T06:10:42;101331.75;;;16.15;100.00
38630;BME280;24384;51.988;4.644;2023-07-22T06:13:07;101337.09;;;15.96;100.00
38630;BME280;24384;51.988;4.644;2023-07-22T06:15:33;101337.44;;;15.88;100.00
38630;BME280;24384;51.988;4.644;2023-07-22T06:17:59;101336.78;;;16.02;100.00
38630;BME280;24384;51.988;4.644;2023-07-22T06:20:25;101341.25;;;16.01;100.00
38630;BME280;24384;51.988;4.644;2023-07-22T06:22:50;101335.22;;;15.98;100.00
38630;BME280;24384;51.988;4.644;2023-07-22T06:25:16;101345.88;;;15.98;100.00
38630;BME280;24384;51.988;4.644;2023-07-22T06:27:41;101345.00;;;15.97;100.00
38630;BME280;24384;51.988;4.644;2023-07-22T06:30:07;101338.13;;;15.93;100.00
38630;BME280;24384;51.988;4.644;2023-07-22T06:32:36;101329.47;;;16.07;100.00
38630;BME280;24384;51.988;4.644;2023-07-22T06:35:02;101330.91;;;15.95;100.00
38630;BME280;24384;51.988;4.644;2023-07-22T06:37:28;101335.75;;;15.87;100.00
38630;BME280;24384;51.988;4.644;2023-07-22T06:39:53;101336.31;;;15.93;100.00
38630;BME280;24384;51.988;4.644;2023-07-22T06:42:19;101330.53;;;16.03;100.00
38630;BME280;24384;51.988;4.644;2023-07-22T06:44:45;101334.19;;;16.19;100.00
38630;BME280;24384;51.988;4.644;2023-07-22T06:47:11;101322.13;;;16.12;100.00
38630;BME280;24384;51.988;4.644;2023-07-22T06:49:36;101324.09;;;16.26;100.00
38630;BME280;24384;51.988;4.644;2023-07-22T06:52:01;101324.78;;;16.49;100.00
38630;BME280;24384;51.988;4.644;2023-07-22T06:54:27;101320.22;;;16.68;100.00
38630;BME280;24384;51.988;4.644;2023-07-22T06:56:53;101320.19;;;16.87;100.00
38630;BME280;24384;51.988;4.644;2023-07-22T06:59:18;101309.38;;;16.90;100.00
38630;BME280;24384;51.988;4.644;2023-07-22T07:01:43;101319.44;;;16.83;100.00
38630;BME280;24384;51.988;4.644;2023-07-22T07:04:08;101318.44;;;16.86;100.00
38630;BME280;24384;51.988;4.644;2023-07-22T07:06:34;101320.03;;;16.90;100.00
38630;BME280;24384;51.988;4.644;2023-07-22T07:09:00;101325.06;;;16.77;100.00
38630;BME280;24384;51.988;4.644;2023-07-22T07:11:28;101332.81;;;16.82;100.00
38630;BME280;24384;51.988;4.644;2023-07-22T07:13:53;101341.22;;;16.74;100.00
38630;BME280;24384;51.988;4.644;2023-07-22T07:18:48;101331.13;;;16.81;100.00
38630;BME280;24384;51.988;4.644;2023-07-22T07:21:13;101334.13;;;16.92;100.00
38630;BME280;24384;51.988;4.644;2023-07-22T07:23:38;101335.22;;;17.06;100.00
38630;BME280;24384;51.988;4.644;2023-07-22T07:26:04;101327.50;;;17.17;100.00
38630;BME280;24384;51.988;4.644;2023-07-22T07:28:29;101337.22;;;17.18;100.00
38630;BME280;24384;51.988;4.644;2023-07-22T07:30:54;101335.59;;;17.31;100.00
38630;BME280;24384;51.988;4.644;2023-07-22T07:33:19;101332.41;;;17.25;100.00
38630;BME280;24384;51.988;4.644;2023-07-22T07:35:48;101340.41;;;17.25;100.00
38630;BME280;24384;51.988;4.644;2023-07-22T07:38:13;101327.44;;;17.34;100.00
38630;BME280;24384;51.988;4.644;2023-07-22T07:40:38;101328.16;;;17.38;100.00
38630;BME280;24384;51.988;4.644;2023-07-22T07:43:04;101330.00;;;17.53;100.00
38630;BME280;24384;51.988;4.644;2023-07-22T07:45:29;101333.59;;;17.52;100.00
38630;BME280;24384;51.988;4.644;2023-07-22T07:47:54;101330.34;;;17.47;100.00
38630;BME280;24384;51.988;4.644;2023-07-22T07:50:20;101320.25;;;17.52;100.00
38630;BME280;24384;51.988;4.644;2023-07-22T07:52:45;101321.06;;;17.70;100.00
38630;BME280;24384;51.988;4.644;2023-07-22T07:55:10;101322.69;;;17.73;99.76
38630;BME280;24384;51.988;4.644;2023-07-22T07:57:36;101323.41;;;18.08;98.14
38630;BME280;24384;51.988;4.644;2023-07-22T08:00:01;101322.38;;;18.11;93.96
38630;BME280;24384;51.988;4.644;2023-07-22T08:02:27;101324.44;;;18.22;93.42
38630;BME280;24384;51.988;4.644;2023-07-22T08:04:52;101319.19;;;18.20;92.35
38630;BME280;24384;51.988;4.644;2023-07-22T08:07:17;101325.44;;;18.35;93.32
38630;BME280;24384;51.988;4.644;2023-07-22T08:09:43;101321.59;;;18.25;93.43
38630;BME280;24384;51.988;4.644;2023-07-22T08:12:08;101322.78;;;18.35;94.18
38630;BME280;24384;51.988;4.644;2023-07-22T08:14:34;101325.75;;;18.45;92.53
38630;BME280;24384;51.988;4.644;2023-07-22T08:16:59;101322.69;;;18.67;92.73
38630;BME280;24384;51.988;4.644;2023-07-22T08:19:24;101316.38;;;18.68;93.76
38630;BME280;24384;51.988;4.644;2023-07-22T08:21:49;101316.69;;;18.78;91.81
38630;BME280;24384;51.988;4.644;2023-07-22T08:24:15;101316.50;;;19.11;91.21
38630;BME280;24384;51.988;4.644;2023-07-22T08:26:40;101307.72;;;19.24;85.90
38630;BME280;24384;51.988;4.644;2023-07-22T08:29:05;101315.06;;;19.20;85.45
38630;BME280;24384;51.988;4.644;2023-07-22T08:31:31;101320.03;;;19.26;84.35
38630;BME280;24384;51.988;4.644;2023-07-22T08:33:56;101326.63;;;19.21;84.94
38630;BME280;24384;51.988;4.644;2023-07-22T08:36:21;101323.53;;;18.98;85.51
38630;BME280;24384;51.988;4.644;2023-07-22T08:38:47;101320.28;;;19.07;84.82
38630;BME280;24384;51.988;4.644;2023-07-22T08:41:15;101318.41;;;19.24;82.90
38630;BME280;24384;51.988;4.644;2023-07-22T08:43:41;101316.31;;;19.14;85.59
38630;BME280;24384;51.988;4.644;2023-07-22T08:46:10;101312.31;;;19.22;83.31
38630;BME280;24384;51.988;4.644;2023-07-22T08:48:36;101302.91;;;19.58;82.59
38630;BME280;24384;51.988;4.644;2023-07-22T08:51:18;101301.91;;;20.02;79.14
38630;BME280;24384;51.988;4.644;2023-07-22T08:53:45;101301.13;;;20.00;79.21
38630;BME280;24384;51.988;4.644;2023-07-22T08:56:10;101310.44;;;19.65;78.57
38630;BME280;24384;51.988;4.644;2023-07-22T08:58:37;101311.31;;;19.66;81.10
38630;BME280;24384;51.988;4.644;2023-07-22T09:01:03;101311.69;;;19.60;80.31
38630;BME280;24384;51.988;4.644;2023-07-22T09:03:29;101309.72;;;19.35;78.78
38630;BME280;24384;51.988;4.644;2023-07-22T09:05:55;101319.91;;;19.71;81.36
38630;BME280;24384;51.988;4.644;2023-07-22T09:08:21;101316.34;;;19.71;78.71
38630;BME280;24384;51.988;4.644;2023-07-22T09:10:48;101317.34;;;19.41;79.19
38630;BME280;24384;51.988;4.644;2023-07-22T09:13:13;101321.38;;;19.48;77.64
38630;BME280;24384;51.988;4.644;2023-07-22T09:15:40;101316.06;;;19.75;81.66
38630;BME280;24384;51.988;4.644;2023-07-22T09:18:05;101315.59;;;19.68;79.39
38630;BME280;24384;51.988;4.644;2023-07-22T09:20:32;101314.28;;;19.61;79.16
38630;BME280;24384;51.988;4.644;2023-07-22T09:22:59;101306.53;;;19.71;79.35
38630;BME280;24384;51.988;4.644;2023-07-22T09:25:26;101308.31;;;19.99;80.51
38630;BME280;24384;51.988;4.644;2023-07-22T09:27:53;101303.09;;;20.11;77.84
38630;BME280;24384;51.988;4.644;2023-07-22T09:32:47;101300.31;;;20.12;73.83
38630;BME280;24384;51.988;4.644;2023-07-22T09:35:13;101304.34;;;20.32;74.99
38630;BME280;24384;51.988;4.644;2023-07-22T09:37:38;101305.63;;;19.99;74.13
38630;BME280;24384;51.988;4.644;2023-07-22T09:40:24;101304.16;;;19.52;74.67
38630;BME280;24384;51.988;4.644;2023-07-22T09:42:50;101297.78;;;19.26;76.28
38630;BME280;24384;51.988;4.644;2023-07-22T09:45:17;101289.84;;;19.24;76.99
38630;BME280;24384;51.988;4.644;2023-07-22T09:47:45;101289.28;;;19.33;76.71
38630;BME280;24384;51.988;4.644;2023-07-22T09:50:14;101304.84;;;19.27;76.38
38630;BME280;24384;51.988;4.644;2023-07-22T09:55:14;101301.13;;;19.01;75.27
38630;BME280;24384;51.988;4.644;2023-07-22T09:57:43;101296.72;;;19.00;78.76
38630;BME280;24384;51.988;4.644;2023-07-22T10:00:15;101296.53;;;19.03;79.13
38630;BME280;24384;51.988;4.644;2023-07-22T10:02:42;101304.06;;;18.96;78.97
38630;BME280;24384;51.988;4.644;2023-07-22T10:05:15;101307.34;;;18.71;78.17
38630;BME280;24384;51.988;4.644;2023-07-22T10:07:47;101310.09;;;18.69;76.09
38630;BME280;24384;51.988;4.644;2023-07-22T10:10:16;101312.06;;;18.51;76.76
38630;BME280;24384;51.988;4.644;2023-07-22T10:12:42;101322.47;;;18.56;77.47
38630;BME280;24384;51.988;4.644;2023-07-22T10:15:12;101320.88;;;18.68;79.13
38630;BME280;24384;51.988;4.644;2023-07-22T10:17:42;101328.38;;;18.61;78.45
38630;BME280;24384;51.988;4.644;2023-07-22T10:20:09;101321.19;;;18.47;78.60
38630;BME280;24384;51.988;4.644;2023-07-22T10:22:46;101316.81;;;18.46;82.28
38630;BME280;24384;51.988;4.644;2023-07-22T10:25:14;101322.06;;;18.32;85.02
38630;BME280;24384;51.988;4.644;2023-07-22T10:27:40;101326.25;;;18.21;87.18
38630;BME280;24384;51.988;4.644;2023-07-22T10:30:10;101326.91;;;18.25;87.73
38630;BME280;24384;51.988;4.644;2023-07-22T10:35:10;101325.19;;;18.24;87.08
38630;BME280;24384;51.988;4.644;2023-07-22T10:37:36;101327.28;;;18.19;86.84
38630;BME280;24384;51.988;4.644;2023-07-22T10:43:03;101330.16;;;18.00;86.09
38630;BME280;24384;51.988;4.644;2023-07-22T10:45:31;101330.91;;;18.02;85.39
38630;BME280;24384;51.988;4.644;2023-07-22T10:48:05;101329.84;;;18.20;83.95
38630;BME280;24384;51.988;4.644;2023-07-22T10:50:51;101328.53;;;18.43;82.90
38630;BME280;24384;51.988;4.644;2023-07-22T10:53:20;101322.81;;;18.80;81.91
38630;BME280;24384;51.988;4.644;2023-07-22T11:01:35;101313.72;;;18.99;81.25
38630;BME280;24384;51.988;4.644;2023-07-22T11:04:27;101309.97;;;19.01;81.32
38630;BME280;24384;51.988;4.644;2023-07-22T11:07:02;101318.09;;;19.00;81.85
38630;BME280;24384;51.988;4.644;2023-07-22T11:14:34;101314.69;;;19.41;81.32
38630;BME280;24384;51.988;4.644;2023-07-22T11:17:03;101306.19;;;19.34;80.00
38630;BME280;24384;51.988;4.644;2023-07-22T11:19:29;101299.56;;;18.96;80.23
38630;BME280;24384;51.988;4.644;2023-07-22T11:21:55;101294.25;;;19.25;79.04
38630;BME280;24384;51.988;4.644;2023-07-22T11:24:22;101291.97;;;19.19;77.26
38630;BME280;24384;51.988;4.644;2023-07-22T11:26:48;101293.59;;;19.22;77.35
38630;BME280;24384;51.988;4.644;2023-07-22T11:29:14;101291.47;;;19.41;76.54
38630;BME280;24384;51.988;4.644;2023-07-22T11:31:41;101295.59;;;19.32;77.71
38630;BME280;24384;51.988;4.644;2023-07-22T11:34:10;101283.84;;;19.21;77.30
38630;BME280;24384;51.988;4.644;2023-07-22T11:36:36;101291.75;;;18.93;76.76
38630;BME280;24384;51.988;4.644;2023-07-22T11:39:05;101284.16;;;18.71;76.40
38630;BME280;24384;51.988;4.644;2023-07-22T11:41:31;101284.69;;;18.62;76.79
38630;BME280;24384;51.988;4.644;2023-07-22T11:43:58;101292.72;;;18.62;76.47
38630;BME280;24384;51.988;4.644;2023-07-22T11:46:23;101292.53;;;18.95;77.23
38630;BME280;24384;51.988;4.644;2023-07-22T11:48:53;101287.66;;;19.17;76.30
38630;BME280;24384;51.988;4.644;2023-07-22T11:51:23;101280.03;;;19.25;76.06
38630;BME280;24384;51.988;4.644;2023-07-22T11:53:51;101288.50;;;18.88;75.47
38630;BME280;24384;51.988;4.644;2023-07-22T11:56:27;101294.53;;;18.61;76.82
38630;BME280;24384;51.988;4.644;2023-07-22T11:58:54;101295.47;;;18.60;76.50
38630;BME280;24384;51.988;4.644;2023-07-22T12:01:20;101303.75;;;18.56;75.49
38630;BME280;24384;51.988;4.644;2023-07-22T12:03:46;101308.97;;;18.43;75.25
38630;BME280;24384;51.988;4.644;2023-07-22T12:06:12;101305.50;;;18.11;75.44
38630;BME280;24384;51.988;4.644;2023-07-22T12:08:43;101311.28;;;18.03;77.07
38630;BME280;24384;51.988;4.644;2023-07-22T12:11:16;101312.63;;;18.10;76.33
38630;BME280;24384;51.988;4.644;2023-07-22T12:13:41;101310.84;;;18.11;75.40
38630;BME280;24384;51.988;4.644;2023-07-22T12:16:10;101308.72;;;18.32;76.65
38630;BME280;24384;51.988;4.644;2023-07-22T12:18:44;101304.53;;;18.58;75.65
38630;BME280;24384;51.988;4.644;2023-07-22T12:21:11;101297.13;;;18.63;74.50
38630;BME280;24384;51.988;4.644;2023-07-22T12:23:37;101305.59;;;18.55;73.40
38630;BME280;24384;51.988;4.644;2023-07-22T12:26:03;101315.09;;;18.45;75.94
38630;BME280;24384;51.988;4.644;2023-07-22T12:28:28;101313.75;;;18.22;76.58
38630;BME280;24384;51.988;4.644;2023-07-22T12:30:54;101313.59;;;18.09;77.77
38630;BME280;24384;51.988;4.644;2023-07-22T12:33:20;101309.47;;;18.03;75.56
38630;BME280;24384;51.988;4.644;2023-07-22T12:35:45;101315.25;;;17.96;76.80
38630;BME280;24384;51.988;4.644;2023-07-22T12:38:10;101316.44;;;17.90;76.61
38630;BME280;24384;51.988;4.644;2023-07-22T12:40:35;101308.25;;;17.77;77.34
38630;BME280;24384;51.988;4.644;2023-07-22T12:43:00;101320.09;;;17.71;76.72
38630;BME280;24384;51.988;4.644;2023-07-22T12:45:26;101318.13;;;17.59;77.61
38630;BME280;24384;51.988;4.644;2023-07-22T12:47:51;101315.72;;;17.70;76.63
38630;BME280;24384;51.988;4.644;2023-07-22T12:50:16;101315.72;;;17.70;75.95
38630;BME280;24384;51.988;4.644;2023-07-22T12:52:42;101321.84;;;17.72;76.87
38630;BME280;24384;51.988;4.644;2023-07-22T12:55:07;101311.34;;;17.69;77.30
38630;BME280;24384;51.988;4.644;2023-07-22T12:57:32;101316.75;;;17.68;76.41
38630;BME280;24384;51.988;4.644;2023-07-22T12:59:58;101317.19;;;17.60;75.81
38630;BME280;24384;51.988;4.644;2023-07-22T13:02:23;101316.03;;;17.48;76.73
38630;BME280;24384;51.988;4.644;2023-07-22T13:04:50;101320.19;;;17.70;76.07